sensor_id;sensor_type;location;lat;lon;timestamp;pressure;altitude;pressure_sealevel;temperature;humidity
8641;BME280;4358;42.100;25.222;2023-02-28T00:01:19;100585.09;;;12.04;100.00
8641;BME280;4358;42.100;25.222;2023-02-28T00:03:46;100584.63;;;12.11;100.00
8641;BME280;4358;42.100;25.222;2023-02-28T00:06:13;100585.78;;;12.07;100.00
8641;BME280;4358;42.100;25.222;2023-02-28T00:08:40;100582.25;;;12.07;100.00
8641;BME280;4358;42.100;25.222;2023-02-28T00:11:10;100580.38;;;12.09;100.00
8641;BME280;4358;42.100;25.222;2023-02-28T00:13:38;100579.31;;;11.97;100.00
8641;BME280;4358;42.100;25.222;2023-02-28T00:16:08;100586.72;;;11.92;100.00
8641;BME280;4358;42.100;25.222;2023-02-28T00:18:37;100589.75;;;12.00;100.00
8641;BME280;4358;42.100;25.222;2023-02-28T00:21:05;100580.75;;;12.03;100.00
8641;BME280;4358;42.100;25.222;2023-02-28T00:23:32;100586.50;;;12.09;100.00
8641;BME280;4358;42.100;25.222;2023-02-28T00:26:00;100599.38;;;12.03;100.00
8641;BME280;4358;42.100;25.222;2023-02-28T00:28:27;100606.84;;;11.96;100.00
8641;BME280;4358;42.100;25.222;2023-02-28T00:30:54;100625.00;;;12.04;100.00
8641;BME280;4358;42.100;25.222;2023-02-28T00:33:20;100622.34;;;12.04;100.00
8641;BME280;4358;42.100;25.222;2023-02-28T00:35:49;100633.56;;;12.09;100.00
8641;BME280;4358;42.100;25.222;2023-02-28T00:38:15;100634.47;;;11.94;100.00
8641;BME280;4358;42.100;25.222;2023-02-28T00:40:42;100640.94;;;11.89;100.00
8641;BME280;4358;42.100;25.222;2023-02-28T00:43:09;100638.50;;;11.86;100.00
8641;BME280;4358;42.100;25.222;2023-02-28T00:45:36;100640.38;;;11.84;100.00
8641;BME280;4358;42.100;25.222;2023-02-28T00:48:03;100648.06;;;11.89;100.00
8641;BME280;4358;42.100;25.222;2023-02-28T00:50:30;100651.22;;;11.81;100.00
8641;BME280;4358;42.100;25.222;2023-02-28T00:52:58;100653.94;;;11.80;100.00
8641;BME280;4358;42.100;25.222;2023-02-28T00:55:25;100657.41;;;11.66;100.00
8641;BME280;4358;42.100;25.222;2023-02-28T00:57:52;100668.56;;;11.57;100.00
8641;BME280;4358;42.100;25.222;2023-02-28T01:00:19;100665.28;;;11.68;100.00
8641;BME280;4358;42.100;25.222;2023-02-28T01:02:46;100662.66;;;11.52;100.00
8641;BME280;4358;42.100;25.222;2023-02-28T01:05:13;100661.94;;;11.50;100.00
8641;BME280;4358;42.100;25.222;2023-02-28T01:07:40;100663.22;;;11.43;100.00
8641;BME280;4358;42.100;25.222;2023-02-28T01:10:10;100666.66;;;11.45;100.00
8641;BME280;4358;42.100;25.222;2023-02-28T01:12:37;100675.44;;;11.61;100.00
8641;BME280;4358;42.100;25.222;2023-02-28T01:15:05;100669.75;;;11.67;100.00
8641;BME280;4358;42.100;25.222;2023-02-28T01:17:32;100687.25;;;11.71;100.00
8641;BME280;4358;42.100;25.222;2023-02-28T01:19:59;100688.53;;;11.64;100.00
8641;BME280;4358;42.100;25.222;2023-02-28T01:22:25;100684.38;;;11.60;100.00
8641;BME280;4358;42.100;25.222;2023-02-28T01:24:52;100675.34;;;11.63;100.00
8641;BME280;4358;42.100;25.222;2023-02-28T01:27:21;100679.22;;;11.57;100.00
8641;BME280;4358;42.100;25.222;2023-02-28T01:29:47;100683.19;;;11.50;100.00
8641;BME280;4358;42.100;25.222;2023-02-28T01:32:14;100690.56;;;11.45;100.00
8641;BME280;4358;42.100;25.222;2023-02-28T01:34:41;100694.09;;;11.45;100.00
8641;BME280;4358;42.100;25.222;2023-02-28T01:37:08;100706.94;;;11.37;100.00
8641;BME280;4358;42.100;25.222;2023-02-28T01:39:35;100710.28;;;11.41;100.00
8641;BME280;4358;42.100;25.222;2023-02-28T01:42:01;100711.16;;;11.41;100.00
8641;BME280;4358;42.100;25.222;2023-02-28T01:47:38;100707.88;;;11.52;100.00
8641;BME280;4358;42.100;25.222;2023-02-28T01:50:11;100703.41;;;11.53;100.00
8641;BME280;4358;42.100;25.222;2023-02-28T01:52:41;100716.22;;;11.46;100.00
8641;BME280;4358;42.100;25.222;2023-02-28T01:55:11;100706.69;;;11.42;100.00
8641;BME280;4358;42.100;25.222;2023-02-28T01:57:41;100704.75;;;11.30;100.00
8641;BME280;4358;42.100;25.222;2023-02-28T02:00:11;100713.75;;;11.12;100.00
8641;BME280;4358;42.100;25.222;2023-02-28T02:02:42;100717.94;;;11.16;100.00
8641;BME280;4358;42.100;25.222;2023-02-28T02:05:11;100712.47;;;11.03;100.00
8641;BME280;4358;42.100;25.222;2023-02-28T02:07:42;100729.63;;;11.13;100.00
8641;BME280;4358;42.100;25.222;2023-02-28T02:10:12;100735.69;;;11.15;100.00
8641;BME280;4358;42.100;25.222;2023-02-28T02:13:07;100736.47;;;11.01;100.00
8641;BME280;4358;42.100;25.222;2023-02-28T02:15:41;100749.81;;;11.16;100.00
8641;BME280;4358;42.100;25.222;2023-02-28T02:18:18;100748.88;;;11.17;100.00
8641;BME280;4358;42.100;25.222;2023-02-28T02:27:08;100743.75;;;10.82;100.00
8641;BME280;4358;42.100;25.222;2023-02-28T02:33:14;100760.50;;;10.67;100.00
8641;BME280;4358;42.100;25.222;2023-02-28T02:35:54;100757.56;;;10.56;100.00
8641;BME280;4358;42.100;25.222;2023-02-28T02:38:31;100757.72;;;10.53;100.00
8641;BME280;4358;42.100;25.222;2023-02-28T02:41:11;100755.59;;;10.59;100.00
8641;BME280;4358;42.100;25.222;2023-02-28T02:43:44;100749.91;;;10.50;100.00
8641;BME280;4358;42.100;25.222;2023-02-28T02:46:17;100755.66;;;10.58;100.00
8641;BME280;4358;42.100;25.222;2023-02-28T02:48:46;100750.50;;;10.39;100.00
8641;BME280;4358;42.100;25.222;2023-02-28T02:51:17;100750.31;;;10.42;100.00
8641;BME280;4358;42.100;25.222;2023-02-28T02:53:50;100763.34;;;10.47;100.00
8641;BME280;4358;42.100;25.222;2023-02-28T02:56:20;100778.63;;;10.59;100.00
8641;BME280;4358;42.100;25.222;2023-02-28T02:58:50;100780.53;;;10.57;100.00
8641;BME280;4358;42.100;25.222;2023-02-28T03:01:21;100780.53;;;10.57;100.00
8641;BME280;4358;42.100;25.222;2023-02-28T03:03:54;100788.31;;;10.43;100.00
8641;BME280;4358;42.100;25.222;2023-02-28T03:06:24;100786.94;;;10.36;100.00
8641;BME280;4358;42.100;25.222;2023-02-28T03:08:51;100795.13;;;10.31;100.00
8641;BME280;4358;42.100;25.222;2023-02-28T03:11:17;100801.78;;;10.40;100.00
8641;BME280;4358;42.100;25.222;2023-02-28T03:14:09;100810.97;;;10.50;100.00
8641;BME280;4358;42.100;25.222;2023-02-28T03:16:51;100815.34;;;10.34;100.00
8641;BME280;4358;42.100;25.222;2023-02-28T03:19:31;100816.59;;;10.27;100.00
8641;BME280;4358;42.100;25.222;2023-02-28T03:22:14;100812.56;;;10.19;100.00
8641;BME280;4358;42.100;25.222;2023-02-28T03:24:50;100810.47;;;10.07;100.00
8641;BME280;4358;42.100;25.222;2023-02-28T03:27:25;100810.16;;;9.96;100.00
8641;BME280;4358;42.100;25.222;2023-02-28T03:30:00;100804.16;;;9.93;100.00
8641;BME280;4358;42.100;25.222;2023-02-28T03:32:34;100812.06;;;9.94;100.00
8641;BME280;4358;42.100;25.222;2023-02-28T03:35:09;100812.06;;;9.94;100.00
8641;BME280;4358;42.100;25.222;2023-02-28T03:37:42;100804.63;;;9.84;100.00
8641;BME280;4358;42.100;25.222;2023-02-28T03:40:12;100806.53;;;9.80;100.00
8641;BME280;4358;42.100;25.222;2023-02-28T03:42:44;100809.59;;;9.90;100.00
8641;BME280;4358;42.100;25.222;2023-02-28T03:45:15;100807.91;;;9.89;100.00
8641;BME280;4358;42.100;25.222;2023-02-28T03:47:47;100821.69;;;9.78;100.00
8641;BME280;4358;42.100;25.222;2023-02-28T03:50:17;100819.16;;;9.75;100.00
8641;BME280;4358;42.100;25.222;2023-02-28T03:52:50;100826.13;;;9.77;100.00
8641;BME280;4358;42.100;25.222;2023-02-28T03:55:18;100830.69;;;9.74;100.00
8641;BME280;4358;42.100;25.222;2023-02-28T03:57:53;100837.78;;;9.73;100.00
8641;BME280;4358;42.100;25.222;2023-02-28T04:00:27;100831.09;;;9.66;100.00
8641;BME280;4358;42.100;25.222;2023-02-28T04:02:55;100842.78;;;9.62;100.00
8641;BME280;4358;42.100;25.222;2023-02-28T04:05:23;100833.97;;;9.62;100.00
8641;BME280;4358;42.100;25.222;2023-02-28T04:07:51;100834.84;;;9.62;100.00
8641;BME280;4358;42.100;25.222;2023-02-28T04:10:20;100847.22;;;9.62;100.00
8641;BME280;4358;42.100;25.222;2023-02-28T04:12:46;100835.59;;;9.64;100.00
8641;BME280;4358;42.100;25.222;2023-02-28T04:15:13;100847.06;;;9.65;100.00
8641;BME280;4358;42.100;25.222;2023-02-28T04:17:40;100849.34;;;9.72;100.00
8641;BME280;4358;42.100;25.222;2023-02-28T04:20:08;100855.00;;;9.65;100.00
8641;BME280;4358;42.100;25.222;2023-02-28T04:22:36;100851.16;;;9.53;100.00
8641;BME280;4358;42.100;25.222;2023-02-28T04:25:06;100854.81;;;9.51;100.00
8641;BME280;4358;42.100;25.222;2023-02-28T04:27:33;100861.22;;;9.47;100.00
8641;BME280;4358;42.100;25.222;2023-02-28T04:30:00;100865.41;;;9.51;100.00
8641;BME280;4358;42.100;25.222;2023-02-28T04:32:27;100864.72;;;9.47;100.00
8641;BME280;4358;42.100;25.222;2023-02-28T04:34:54;100860.41;;;9.45;100.00
8641;BME280;4358;42.100;25.222;2023-02-28T04:37:20;100866.13;;;9.54;100.00
8641;BME280;4358;42.100;25.222;2023-02-28T04:39:53;100864.28;;;9.56;100.00
8641;BME280;4358;42.100;25.222;2023-02-28T04:42:21;100871.38;;;9.56;100.00
8641;BME280;4358;42.100;25.222;2023-02-28T04:44:48;100875.31;;;9.47;100.00
8641;BME280;4358;42.100;25.222;2023-02-28T04:47:14;100874.31;;;9.50;100.00
8641;BME280;4358;42.100;25.222;2023-02-28T04:49:41;100877.31;;;9.61;100.00
8641;BME280;4358;42.100;25.222;2023-02-28T04:52:08;100873.50;;;9.66;100.00
8641;BME280;4358;42.100;25.222;2023-02-28T04:54:35;100879.88;;;9.62;100.00
8641;BME280;4358;42.100;25.222;2023-02-28T04:57:04;100878.88;;;9.65;100.00
8641;BME280;4358;42.100;25.222;2023-02-28T04:59:32;100883.19;;;9.67;100.00
8641;BME280;4358;42.100;25.222;2023-02-28T05:01:59;100882.19;;;9.51;100.00
8641;BME280;4358;42.100;25.222;2023-02-28T05:04:32;100891.06;;;9.50;100.00
8641;BME280;4358;42.100;25.222;2023-02-28T05:07:00;100894.84;;;9.45;100.00
8641;BME280;4358;42.100;25.222;2023-02-28T05:09:26;100886.03;;;9.44;100.00
8641;BME280;4358;42.100;25.222;2023-02-28T05:11:53;100891.34;;;9.44;100.00
8641;BME280;4358;42.100;25.222;2023-02-28T05:14:21;100897.50;;;9.45;100.00
8641;BME280;4358;42.100;25.222;2023-02-28T05:16:49;100907.13;;;9.47;100.00
8641;BME280;4358;42.100;25.222;2023-02-28T05:19:16;100903.25;;;9.35;100.00
8641;BME280;4358;42.100;25.222;2023-02-28T05:21:49;100905.59;;;9.42;100.00
8641;BME280;4358;42.100;25.222;2023-02-28T05:24:17;100900.59;;;9.35;100.00
8641;BME280;4358;42.100;25.222;2023-02-28T05:26:49;100911.03;;;9.39;100.00
8641;BME280;4358;42.100;25.222;2023-02-28T05:29:16;100908.03;;;9.46;100.00
8641;BME280;4358;42.100;25.222;2023-02-28T05:31:43;100923.00;;;9.47;100.00
8641;BME280;4358;42.100;25.222;2023-02-28T05:34:11;100924.50;;;9.53;100.00
8641;BME280;4358;42.100;25.222;2023-02-28T05:36:38;100932.44;;;9.53;100.00
8641;BME280;4358;42.100;25.222;2023-02-28T05:39:06;100927.44;;;9.47;100.00
8641;BME280;4358;42.100;25.222;2023-02-28T05:41:39;100926.28;;;9.33;100.00
8641;BME280;4358;42.100;25.222;2023-02-28T05:44:07;100933.47;;;9.31;100.00
8641;BME280;4358;42.100;25.222;2023-02-28T05:46:33;100934.16;;;9.35;100.00
8641;BME280;4358;42.100;25.222;2023-02-28T05:49:00;100936.88;;;9.33;100.00
8641;BME280;4358;42.100;25.222;2023-02-28T05:51:29;100930.72;;;9.33;100.00
8641;BME280;4358;42.100;25.222;2023-02-28T05:53:59;100935.16;;;9.32;100.00
8641;BME280;4358;42.100;25.222;2023-02-28T05:56:25;100938.88;;;9.28;100.00
8641;BME280;4358;42.100;25.222;2023-02-28T05:58:52;100936.00;;;9.33;100.00
8641;BME280;4358;42.100;25.222;2023-02-28T06:01:22;100949.19;;;9.34;100.00
8641;BME280;4358;42.100;25.222;2023-02-28T06:03:49;100947.47;;;9.33;100.00
8641;BME280;4358;42.100;25.222;2023-02-28T06:06:16;100946.16;;;9.23;100.00
8641;BME280;4358;42.100;25.222;2023-02-28T06:08:44;100953.91;;;9.28;100.00
8641;BME280;4358;42.100;25.222;2023-02-28T06:11:11;100954.06;;;9.25;100.00
8641;BME280;4358;42.100;25.222;2023-02-28T06:13:39;100959.19;;;9.28;100.00
8641;BME280;4358;42.100;25.222;2023-02-28T06:16:07;100966.06;;;9.13;100.00
8641;BME280;4358;42.100;25.222;2023-02-28T06:18:34;100974.81;;;9.15;100.00
8641;BME280;4358;42.100;25.222;2023-02-28T06:21:01;100975.56;;;9.17;100.00
8641;BME280;4358;42.100;25.222;2023-02-28T06:23:28;100980.22;;;9.12;100.00
8641;BME280;4358;42.100;25.222;2023-02-28T06:25:57;100978.88;;;9.22;100.00
8641;BME280;4358;42.100;25.222;2023-02-28T06:28:25;100981.06;;;9.13;100.00
8641;BME280;4358;42.100;25.222;2023-02-28T06:30:52;100983.88;;;9.10;100.00
8641;BME280;4358;42.100;25.222;2023-02-28T06:33:19;100985.13;;;9.01;100.00
8641;BME280;4358;42.100;25.222;2023-02-28T06:35:46;100980.38;;;8.89;100.00
8641;BME280;4358;42.100;25.222;2023-02-28T06:38:13;100984.44;;;8.96;100.00
8641;BME280;4358;42.100;25.222;2023-02-28T06:40:40;100980.38;;;8.89;100.00
8641;BME280;4358;42.100;25.222;2023-02-28T06:43:09;100990.75;;;8.93;100.00
8641;BME280;4358;42.100;25.222;2023-02-28T06:45:41;100987.25;;;8.93;100.00
8641;BME280;4358;42.100;25.222;2023-02-28T06:48:08;100990.56;;;8.98;100.00
8641;BME280;4358;42.100;25.222;2023-02-28T06:50:35;100994.53;;;9.08;100.00
8641;BME280;4358;42.100;25.222;2023-02-28T06:53:03;101004.97;;;9.31;100.00
8641;BME280;4358;42.100;25.222;2023-02-28T06:55:30;100999.47;;;9.36;100.00
8641;BME280;4358;42.100;25.222;2023-02-28T06:57:57;100989.75;;;9.37;100.00
8641;BME280;4358;42.100;25.222;2023-02-28T07:00:25;100991.31;;;9.41;100.00
8641;BME280;4358;42.100;25.222;2023-02-28T07:02:52;100990.56;;;9.57;100.00
8641;BME280;4358;42.100;25.222;2023-02-28T07:05:20;100994.84;;;9.60;100.00
8641;BME280;4358;42.100;25.222;2023-02-28T07:07:47;101000.81;;;9.65;100.00
8641;BME280;4358;42.100;25.222;2023-02-28T07:10:14;100999.72;;;9.50;100.00
8641;BME280;4358;42.100;25.222;2023-02-28T07:12:42;101005.06;;;9.49;100.00
8641;BME280;4358;42.100;25.222;2023-02-28T07:15:10;100999.13;;;9.44;100.00
8641;BME280;4358;42.100;25.222;2023-02-28T07:17:38;101003.09;;;9.33;100.00
8641;BME280;4358;42.100;25.222;2023-02-28T07:20:06;101005.34;;;9.43;100.00
8641;BME280;4358;42.100;25.222;2023-02-28T07:22:33;101000.56;;;9.51;100.00
8641;BME280;4358;42.100;25.222;2023-02-28T07:25:00;100999.06;;;9.45;100.00
8641;BME280;4358;42.100;25.222;2023-02-28T07:27:27;101003.75;;;9.39;100.00
8641;BME280;4358;42.100;25.222;2023-02-28T07:29:54;101002.34;;;9.31;100.00
8641;BME280;4358;42.100;25.222;2023-02-28T07:32:21;101002.88;;;9.19;100.00
8641;BME280;4358;42.100;25.222;2023-02-28T07:34:50;100999.00;;;9.26;100.00
8641;BME280;4358;42.100;25.222;2023-02-28T07:37:17;101001.94;;;9.20;100.00
8641;BME280;4358;42.100;25.222;2023-02-28T07:39:44;100999.22;;;9.02;100.00
8641;BME280;4358;42.100;25.222;2023-02-28T07:42:12;101001.28;;;9.15;100.00
8641;BME280;4358;42.100;25.222;2023-02-28T07:44:39;100999.81;;;9.28;100.00
8641;BME280;4358;42.100;25.222;2023-02-28T07:47:07;100997.22;;;9.27;100.00
8641;BME280;4358;42.100;25.222;2023-02-28T07:49:35;100996.88;;;9.34;100.00
8641;BME280;4358;42.100;25.222;2023-02-28T07:52:04;100999.53;;;9.34;100.00
8641;BME280;4358;42.100;25.222;2023-02-28T07:54:31;101005.50;;;9.40;100.00
8641;BME280;4358;42.100;25.222;2023-02-28T07:56:58;101011.44;;;9.45;100.00
8641;BME280;4358;42.100;25.222;2023-02-28T07:59:26;101013.66;;;9.35;100.00
8641;BME280;4358;42.100;25.222;2023-02-28T08:01:52;101007.22;;;9.41;100.00
8641;BME280;4358;42.100;25.222;2023-02-28T08:04:19;101014.50;;;9.35;100.00
8641;BME280;4358;42.100;25.222;2023-02-28T08:06:46;101023.38;;;9.34;100.00
8641;BME280;4358;42.100;25.222;2023-02-28T08:09:14;101025.44;;;9.28;100.00
8641;BME280;4358;42.100;25.222;2023-02-28T08:11:41;101025.50;;;9.26;100.00
8641;BME280;4358;42.100;25.222;2023-02-28T08:14:08;101026.28;;;9.28;100.00
8641;BME280;4358;42.100;25.222;2023-02-28T08:16:35;101025.38;;;9.29;100.00
8641;BME280;4358;42.100;25.222;2023-02-28T08:19:02;101023.66;;;9.28;100.00
8641;BME280;4358;42.100;25.222;2023-02-28T08:21:29;101022.31;;;9.39;100.00
8641;BME280;4358;42.100;25.222;2023-02-28T08:23:56;101019.38;;;9.26;100.00
8641;BME280;4358;42.100;25.222;2023-02-28T08:26:24;101023.34;;;9.16;100.00
8641;BME280;4358;42.100;25.222;2023-02-28T08:28:51;101020.59;;;9.17;100.00
8641;BME280;4358;42.100;25.222;2023-02-28T08:31:19;101021.91;;;9.27;100.00
8641;BME280;4358;42.100;25.222;2023-02-28T08:33:45;101018.22;;;9.31;100.00
8641;BME280;4358;42.100;25.222;2023-02-28T08:36:14;101015.75;;;9.27;100.00
8641;BME280;4358;42.100;25.222;2023-02-28T08:38:41;101015.63;;;9.30;100.00
8641;BME280;4358;42.100;25.222;2023-02-28T08:41:10;101018.63;;;9.22;100.00
8641;BME280;4358;42.100;25.222;2023-02-28T08:43:40;101003.66;;;9.01;100.00
8641;BME280;4358;42.100;25.222;2023-02-28T08:46:07;101010.16;;;9.14;100.00
8641;BME280;4358;42.100;25.222;2023-02-28T08:48:35;101011.28;;;9.09;100.00
8641;BME280;4358;42.100;25.222;2023-02-28T08:51:06;101018.41;;;9.07;100.00
8641;BME280;4358;42.100;25.222;2023-02-28T08:53:35;101024.31;;;9.13;100.00
8641;BME280;4358;42.100;25.222;2023-02-28T08:56:06;101034.84;;;9.35;100.00
8641;BME280;4358;42.100;25.222;2023-02-28T08:58:33;101028.16;;;9.47;100.00
8641;BME280;4358;42.100;25.222;2023-02-28T09:01:07;101029.84;;;9.48;100.00
8641;BME280;4358;42.100;25.222;2023-02-28T09:03:34;101018.03;;;9.36;100.00
8641;BME280;4358;42.100;25.222;2023-02-28T09:06:02;101035.16;;;9.48;100.00
8641;BME280;4358;42.100;25.222;2023-02-28T09:08:30;101033.28;;;9.50;100.00
8641;BME280;4358;42.100;25.222;2023-02-28T09:10:57;101027.56;;;9.40;100.00
8641;BME280;4358;42.100;25.222;2023-02-28T09:13:25;101037.28;;;9.40;100.00
8641;BME280;4358;42.100;25.222;2023-02-28T09:15:53;101033.56;;;9.44;100.00
8641;BME280;4358;42.100;25.222;2023-02-28T09:18:21;101036.47;;;9.38;100.00
8641;BME280;4358;42.100;25.222;2023-02-28T09:20:48;101023.22;;;9.38;100.00
8641;BME280;4358;42.100;25.222;2023-02-28T09:23:16;101019.88;;;9.34;100.00
8641;BME280;4358;42.100;25.222;2023-02-28T09:25:46;101015.31;;;9.17;100.00
8641;BME280;4358;42.100;25.222;2023-02-28T09:28:15;101006.59;;;9.15;100.00
8641;BME280;4358;42.100;25.222;2023-02-28T09:30:44;101004.19;;;9.29;100.00
8641;BME280;4358;42.100;25.222;2023-02-28T09:33:12;100992.78;;;9.27;100.00
8641;BME280;4358;42.100;25.222;2023-02-28T09:35:40;101001.91;;;9.41;100.00
8641;BME280;4358;42.100;25.222;2023-02-28T09:38:09;100996.53;;;9.42;100.00
8641;BME280;4358;42.100;25.222;2023-02-28T09:40:40;100995.44;;;9.27;100.00
8641;BME280;4358;42.100;25.222;2023-02-28T09:43:12;100991.84;;;9.28;100.00
8641;BME280;4358;42.100;25.222;2023-02-28T09:45:42;101004.22;;;9.48;100.00
8641;BME280;4358;42.100;25.222;2023-02-28T09:48:16;100997.50;;;9.60;100.00
8641;BME280;4358;42.100;25.222;2023-02-28T09:50:48;100997.22;;;9.47;100.00
8641;BME280;4358;42.100;25.222;2023-02-28T09:53:19;100994.19;;;9.55;100.00
8641;BME280;4358;42.100;25.222;2023-02-28T09:55:50;100990.63;;;9.56;100.00
8641;BME280;4358;42.100;25.222;2023-02-28T09:58:22;100977.88;;;9.64;100.00
8641;BME280;4358;42.100;25.222;2023-02-28T10:00:57;100981.03;;;9.72;100.00
8641;BME280;4358;42.100;25.222;2023-02-28T10:03:31;100978.59;;;9.86;100.00
8641;BME280;4358;42.100;25.222;2023-02-28T10:06:08;100974.59;;;9.77;100.00
8641;BME280;4358;42.100;25.222;2023-02-28T10:08:42;100991.38;;;9.78;100.00
8641;BME280;4358;42.100;25.222;2023-02-28T10:11:14;100969.28;;;9.77;100.00
8641;BME280;4358;42.100;25.222;2023-02-28T10:13:52;100973.28;;;9.86;100.00
8641;BME280;4358;42.100;25.222;2023-02-28T10:16:28;100979.59;;;10.02;100.00
8641;BME280;4358;42.100;25.222;2023-02-28T10:18:59;100967.25;;;10.01;100.00
8641;BME280;4358;42.100;25.222;2023-02-28T10:21:34;100973.13;;;10.08;100.00
8641;BME280;4358;42.100;25.222;2023-02-28T10:24:05;100973.13;;;10.08;100.00
8641;BME280;4358;42.100;25.222;2023-02-28T10:26:38;100968.81;;;10.05;100.00
8641;BME280;4358;42.100;25.222;2023-02-28T10:29:08;100973.50;;;10.00;100.00
8641;BME280;4358;42.100;25.222;2023-02-28T10:31:35;100972.78;;;9.97;100.00
8641;BME280;4358;42.100;25.222;2023-02-28T10:34:02;100975.22;;;10.01;100.00
8641;BME280;4358;42.100;25.222;2023-02-28T10:36:30;100965.84;;;9.94;100.00
8641;BME280;4358;42.100;25.222;2023-02-28T10:38:57;100965.06;;;9.92;100.00
8641;BME280;4358;42.100;25.222;2023-02-28T10:41:29;100955.78;;;10.01;100.00
8641;BME280;4358;42.100;25.222;2023-02-28T10:44:15;100956.69;;;10.20;100.00
8641;BME280;4358;42.100;25.222;2023-02-28T10:46:45;100960.97;;;10.23;100.00
8641;BME280;4358;42.100;25.222;2023-02-28T10:49:17;100962.38;;;10.30;100.00
8641;BME280;4358;42.100;25.222;2023-02-28T10:51:52;100950.50;;;10.19;100.00
8641;BME280;4358;42.100;25.222;2023-02-28T10:54:24;100947.47;;;10.08;100.00
8641;BME280;4358;42.100;25.222;2023-02-28T10:57:07;100951.50;;;10.17;100.00
8641;BME280;4358;42.100;25.222;2023-02-28T10:59:35;100940.38;;;10.09;100.00
8641;BME280;4358;42.100;25.222;2023-02-28T11:02:01;100937.00;;;10.05;100.00
8641;BME280;4358;42.100;25.222;2023-02-28T11:04:34;100927.00;;;9.93;100.00
8641;BME280;4358;42.100;25.222;2023-02-28T11:07:06;100928.84;;;9.91;100.00
8641;BME280;4358;42.100;25.222;2023-02-28T11:09:45;100928.78;;;9.93;100.00
8641;BME280;4358;42.100;25.222;2023-02-28T11:12:21;100916.81;;;10.03;100.00
8641;BME280;4358;42.100;25.222;2023-02-28T11:14:50;100931.28;;;10.14;100.00
8641;BME280;4358;42.100;25.222;2023-02-28T11:17:21;100927.25;;;10.25;100.00
8641;BME280;4358;42.100;25.222;2023-02-28T11:19:51;100930.53;;;10.30;100.00
8641;BME280;4358;42.100;25.222;2023-02-28T11:22:23;100931.09;;;10.36;100.00
8641;BME280;4358;42.100;25.222;2023-02-28T11:24:55;100919.22;;;10.26;100.00
8641;BME280;4358;42.100;25.222;2023-02-28T11:27:43;100911.63;;;10.18;100.00
8641;BME280;4358;42.100;25.222;2023-02-28T11:30:27;100902.31;;;10.10;100.00
8641;BME280;4358;42.100;25.222;2023-02-28T11:32:54;100891.22;;;10.02;100.00
8641;BME280;4358;42.100;25.222;2023-02-28T11:35:24;100905.31;;;10.21;100.00
8641;BME280;4358;42.100;25.222;2023-02-28T11:37:54;100897.16;;;10.26;100.00
8641;BME280;4358;42.100;25.222;2023-02-28T11:40:25;100894.94;;;10.16;100.00
8641;BME280;4358;42.100;25.222;2023-02-28T11:43:01;100897.16;;;10.26;100.00
8641;BME280;4358;42.100;25.222;2023-02-28T11:45:54;100905.47;;;10.18;100.00
8641;BME280;4358;42.100;25.222;2023-02-28T11:48:28;100898.53;;;10.33;100.00
8641;BME280;4358;42.100;25.222;2023-02-28T11:51:04;100886.94;;;10.35;100.00
8641;BME280;4358;42.100;25.222;2023-02-28T11:53:51;100900.03;;;10.38;100.00
8641;BME280;4358;42.100;25.222;2023-02-28T11:56:27;100910.63;;;10.21;100.00
8641;BME280;4358;42.100;25.222;2023-02-28T11:59:05;100895.72;;;10.18;100.00
8641;BME280;4358;42.100;25.222;2023-02-28T12:01:53;100900.44;;;10.31;100.00
8641;BME280;4358;42.100;25.222;2023-02-28T12:04:27;100897.25;;;10.41;100.00
8641;BME280;4358;42.100;25.222;2023-02-28T12:07:05;100901.22;;;10.50;100.00
8641;BME280;4358;42.100;25.222;2023-02-28T12:09:46;100892.75;;;10.59;100.00
8641;BME280;4358;42.100;25.222;2023-02-28T12:12:26;100888.47;;;10.74;100.00
8641;BME280;4358;42.100;25.222;2023-02-28T12:15:12;100890.66;;;10.66;100.00
8641;BME280;4358;42.100;25.222;2023-02-28T12:17:51;100897.69;;;10.67;100.00
8641;BME280;4358;42.100;25.222;2023-02-28T12:20:31;100894.19;;;10.66;100.00
8641;BME280;4358;42.100;25.222;2023-02-28T12:23:22;100910.19;;;10.65;100.00
8641;BME280;4358;42.100;25.222;2023-02-28T12:26:04;100896.84;;;10.49;100.00
8641;BME280;4358;42.100;25.222;2023-02-28T12:28:38;100896.13;;;10.62;100.00
8641;BME280;4358;42.100;25.222;2023-02-28T12:31:11;100902.63;;;10.57;100.00
8641;BME280;4358;42.100;25.222;2023-02-28T12:33:45;100883.88;;;10.43;100.00
8641;BME280;4358;42.100;25.222;2023-02-28T12:36:15;100894.97;;;10.34;100.00
8641;BME280;4358;42.100;25.222;2023-02-28T12:38:47;100892.22;;;10.35;100.00
8641;BME280;4358;42.100;25.222;2023-02-28T12:41:19;100900.09;;;10.37;100.00
8641;BME280;4358;42.100;25.222;2023-02-28T12:43:55;100891.19;;;10.38;100.00
8641;BME280;4358;42.100;25.222;2023-02-28T12:46:27;100881.63;;;10.35;100.00
8641;BME280;4358;42.100;25.222;2023-02-28T12:48:56;100876.84;;;10.42;100.00
8641;BME280;4358;42.100;25.222;2023-02-28T12:51:25;100877.00;;;10.39;100.00
8641;BME280;4358;42.100;25.222;2023-02-28T12:54:00;100867.72;;;10.30;100.00
8641;BME280;4358;42.100;25.222;2023-02-28T12:56:35;100869.88;;;10.22;100.00
8641;BME280;4358;42.100;25.222;2023-02-28T12:59:13;100868.47;;;10.15;100.00
8641;BME280;4358;42.100;25.222;2023-02-28T13:01:53;100866.97;;;10.09;100.00
8641;BME280;4358;42.100;25.222;2023-02-28T13:04:52;100859.31;;;10.03;100.00
8641;BME280;4358;42.100;25.222;2023-02-28T13:07:37;100856.97;;;9.97;100.00
8641;BME280;4358;42.100;25.222;2023-02-28T13:10:08;100858.69;;;9.98;100.00
8641;BME280;4358;42.100;25.222;2023-02-28T13:12:47;100857.28;;;10.08;100.00
8641;BME280;4358;42.100;25.222;2023-02-28T13:15:18;100863.88;;;10.18;100.00
8641;BME280;4358;42.100;25.222;2023-02-28T13:17:49;100862.50;;;10.29;100.00
8641;BME280;4358;42.100;25.222;2023-02-28T13:20:19;100858.28;;;10.25;100.00
8641;BME280;4358;42.100;25.222;2023-02-28T13:22:48;100873.91;;;10.31;100.00
8641;BME280;4358;42.100;25.222;2023-02-28T13:34:41;100857.28;;;10.08;100.00